sensor_id;sensor_type;location;lat;lon;timestamp;pressure;altitude;pressure_sealevel;temperature;humidity
70544;BME280;58097;48.364;-1.224;2023-08-06T00:00:04;99677.19;;;15.30;82.58
70544;BME280;58097;48.364;-1.224;2023-08-06T00:02:30;99670.56;;;15.31;82.82
70544;BME280;58097;48.364;-1.224;2023-08-06T00:04:55;99676.13;;;15.31;82.55
70544;BME280;58097;48.364;-1.224;2023-08-06T00:07:20;99677.84;;;15.32;82.61
70544;BME280;58097;48.364;-1.224;2023-08-06T00:09:46;99681.63;;;15.25;83.06
70544;BME280;58097;48.364;-1.224;2023-08-06T00:12:11;99677.78;;;15.26;82.91
70544;BME280;58097;48.364;-1.224;2023-08-06T00:14:37;99677.13;;;15.24;82.68
70544;BME280;58097;48.364;-1.224;2023-08-06T00:17:02;99675.78;;;15.19;82.69
70544;BME280;58097;48.364;-1.224;2023-08-06T00:19:27;99662.53;;;15.22;82.58
70544;BME280;58097;48.364;-1.224;2023-08-06T00:21:53;99680.69;;;15.17;82.66
70544;BME280;58097;48.364;-1.224;2023-08-06T00:24:19;99688.19;;;15.17;82.75
70544;BME280;58097;48.364;-1.224;2023-08-06T00:26:44;99684.94;;;15.13;83.18
70544;BME280;58097;48.364;-1.224;2023-08-06T00:29:09;99684.06;;;15.13;82.93
70544;BME280;58097;48.364;-1.224;2023-08-06T00:31:35;99681.28;;;15.13;82.75
70544;BME280;58097;48.364;-1.224;2023-08-06T00:34:00;99683.22;;;15.12;82.33
70544;BME280;58097;48.364;-1.224;2023-08-06T00:36:25;99687.91;;;15.12;82.88
70544;BME280;58097;48.364;-1.224;2023-08-06T00:38:51;99693.28;;;15.13;82.97
70544;BME280;58097;48.364;-1.224;2023-08-06T00:41:17;99691.38;;;15.14;83.08
70544;BME280;58097;48.364;-1.224;2023-08-06T00:43:42;99693.69;;;15.10;83.12
70544;BME280;58097;48.364;-1.224;2023-08-06T00:46:07;99694.53;;;15.11;82.98
70544;BME280;58097;48.364;-1.224;2023-08-06T00:48:33;99700.69;;;15.06;83.03
70544;BME280;58097;48.364;-1.224;2023-08-06T00:50:58;99693.22;;;15.07;82.96
70544;BME280;58097;48.364;-1.224;2023-08-06T00:53:24;99690.63;;;15.05;82.86
70544;BME280;58097;48.364;-1.224;2023-08-06T00:55:50;99684.38;;;15.03;82.48
70544;BME280;58097;48.364;-1.224;2023-08-06T00:58:16;99687.34;;;15.02;82.68
70544;BME280;58097;48.364;-1.224;2023-08-06T01:00:41;99694.16;;;14.99;82.19
70544;BME280;58097;48.364;-1.224;2023-08-06T01:03:07;99700.19;;;15.03;82.38
70544;BME280;58097;48.364;-1.224;2023-08-06T01:05:33;99702.13;;;15.02;82.11
70544;BME280;58097;48.364;-1.224;2023-08-06T01:08:16;99708.06;;;14.99;82.61
70544;BME280;58097;48.364;-1.224;2023-08-06T01:13:33;99717.09;;;15.01;82.07
70544;BME280;58097;48.364;-1.224;2023-08-06T01:16:03;99723.31;;;15.03;82.10
70544;BME280;58097;48.364;-1.224;2023-08-06T01:18:30;99719.13;;;15.07;81.93
70544;BME280;58097;48.364;-1.224;2023-08-06T01:20:56;99725.63;;;15.00;82.52
70544;BME280;58097;48.364;-1.224;2023-08-06T01:23:22;99728.41;;;15.00;82.11
70544;BME280;58097;48.364;-1.224;2023-08-06T01:26:19;99720.66;;;14.95;82.87
70544;BME280;58097;48.364;-1.224;2023-08-06T01:29:04;99742.91;;;14.95;82.70
70544;BME280;58097;48.364;-1.224;2023-08-06T01:31:35;99741.38;;;14.93;82.64
70544;BME280;58097;48.364;-1.224;2023-08-06T01:34:03;99740.72;;;14.91;82.83
70544;BME280;58097;48.364;-1.224;2023-08-06T01:36:30;99739.84;;;14.90;82.69
70544;BME280;58097;48.364;-1.224;2023-08-06T01:38:56;99753.78;;;14.90;83.07
70544;BME280;58097;48.364;-1.224;2023-08-06T01:41:22;99749.84;;;14.84;83.37
70544;BME280;58097;48.364;-1.224;2023-08-06T01:43:48;99755.22;;;14.86;83.41
70544;BME280;58097;48.364;-1.224;2023-08-06T01:46:13;99761.44;;;14.88;83.56
70544;BME280;58097;48.364;-1.224;2023-08-06T01:48:38;99753.78;;;14.90;82.86
70544;BME280;58097;48.364;-1.224;2023-08-06T01:51:04;99754.44;;;14.92;83.35
70544;BME280;58097;48.364;-1.224;2023-08-06T01:53:30;99761.72;;;14.93;82.95
70544;BME280;58097;48.364;-1.224;2023-08-06T01:55:56;99758.94;;;14.93;83.45
70544;BME280;58097;48.364;-1.224;2023-08-06T01:58:22;99751.28;;;14.95;83.15
70544;BME280;58097;48.364;-1.224;2023-08-06T02:00:47;99751.28;;;14.95;83.43
70544;BME280;58097;48.364;-1.224;2023-08-06T02:03:13;99751.47;;;14.94;83.26
70544;BME280;58097;48.364;-1.224;2023-08-06T02:05:38;99760.88;;;14.93;83.06
70544;BME280;58097;48.364;-1.224;2023-08-06T02:08:03;99768.34;;;14.92;82.79
70544;BME280;58097;48.364;-1.224;2023-08-06T02:10:29;99768.75;;;14.89;82.90
70544;BME280;58097;48.364;-1.224;2023-08-06T02:12:54;99772.19;;;14.91;82.95
70544;BME280;58097;48.364;-1.224;2023-08-06T02:15:19;99773.63;;;14.87;83.12
70544;BME280;58097;48.364;-1.224;2023-08-06T02:17:45;99771.91;;;14.86;83.63
70544;BME280;58097;48.364;-1.224;2023-08-06T02:20:10;99771.25;;;14.84;83.30
70544;BME280;58097;48.364;-1.224;2023-08-06T02:22:35;99774.69;;;14.86;82.84
70544;BME280;58097;48.364;-1.224;2023-08-06T02:25:01;99775.56;;;14.86;82.92
70544;BME280;58097;48.364;-1.224;2023-08-06T02:27:26;99769.31;;;14.84;83.30
70544;BME280;58097;48.364;-1.224;2023-08-06T02:29:52;99774.03;;;14.84;83.99
70544;BME280;58097;48.364;-1.224;2023-08-06T02:32:17;99760.97;;;14.84;83.91
70544;BME280;58097;48.364;-1.224;2023-08-06T02:34:42;99762.50;;;14.87;83.52
70544;BME280;58097;48.364;-1.224;2023-08-06T02:37:08;99767.88;;;14.88;83.51
70544;BME280;58097;48.364;-1.224;2023-08-06T02:39:33;99774.97;;;14.91;83.14
70544;BME280;58097;48.364;-1.224;2023-08-06T02:41:59;99781.78;;;14.88;83.83
70544;BME280;58097;48.364;-1.224;2023-08-06T02:44:27;99770.47;;;14.90;83.66
70544;BME280;58097;48.364;-1.224;2023-08-06T02:46:53;99773.06;;;14.92;83.58
70544;BME280;58097;48.364;-1.224;2023-08-06T02:49:18;99768.75;;;14.89;83.69
70544;BME280;58097;48.364;-1.224;2023-08-06T02:51:46;99770.19;;;14.85;84.27
70544;BME280;58097;48.364;-1.224;2023-08-06T02:54:11;99771.06;;;14.85;83.95
70544;BME280;58097;48.364;-1.224;2023-08-06T02:56:37;99771.53;;;14.89;83.64
70544;BME280;58097;48.364;-1.224;2023-08-06T02:59:03;99768.06;;;14.87;83.71
70544;BME280;58097;48.364;-1.224;2023-08-06T03:01:28;99774.50;;;14.87;83.71
70544;BME280;58097;48.364;-1.224;2023-08-06T03:03:54;99777.09;;;14.89;83.44
70544;BME280;58097;48.364;-1.224;2023-08-06T03:06:19;99785.25;;;14.91;83.55
70544;BME280;58097;48.364;-1.224;2023-08-06T03:08:45;99786.97;;;14.92;83.36
70544;BME280;58097;48.364;-1.224;2023-08-06T03:11:10;99784.84;;;14.94;83.85
70544;BME280;58097;48.364;-1.224;2023-08-06T03:13:35;99784.00;;;14.93;83.58
70544;BME280;58097;48.364;-1.224;2023-08-06T03:16:01;99794.66;;;14.90;83.47
70544;BME280;58097;48.364;-1.224;2023-08-06T03:18:26;99789.47;;;14.86;83.86
70544;BME280;58097;48.364;-1.224;2023-08-06T03:20:52;99781.69;;;14.82;84.01
70544;BME280;58097;48.364;-1.224;2023-08-06T03:23:18;99782.75;;;14.81;83.59
70544;BME280;58097;48.364;-1.224;2023-08-06T03:25:44;99787.66;;;14.79;83.66
70544;BME280;58097;48.364;-1.224;2023-08-06T03:28:10;99781.63;;;14.75;83.61
70544;BME280;58097;48.364;-1.224;2023-08-06T03:30:35;99789.25;;;14.73;83.95
70544;BME280;58097;48.364;-1.224;2023-08-06T03:33:01;99795.41;;;14.69;83.73
70544;BME280;58097;48.364;-1.224;2023-08-06T03:35:26;99791.28;;;14.65;84.20
70544;BME280;58097;48.364;-1.224;2023-08-06T03:37:51;99794.16;;;14.56;83.93
70544;BME280;58097;48.364;-1.224;2023-08-06T03:40:17;99801.25;;;14.59;83.67
70544;BME280;58097;48.364;-1.224;2023-08-06T03:42:42;99798.38;;;14.52;84.43
70544;BME280;58097;48.364;-1.224;2023-08-06T03:45:08;99798.94;;;14.48;84.48
70544;BME280;58097;48.364;-1.224;2023-08-06T03:47:34;99797.03;;;14.48;84.40
70544;BME280;58097;48.364;-1.224;2023-08-06T03:49:59;99803.44;;;14.49;84.14
70544;BME280;58097;48.364;-1.224;2023-08-06T03:52:24;99792.16;;;14.42;84.36
70544;BME280;58097;48.364;-1.224;2023-08-06T03:54:50;99799.81;;;14.40;84.39
70544;BME280;58097;48.364;-1.224;2023-08-06T03:57:15;99795.69;;;14.36;84.80
70544;BME280;58097;48.364;-1.224;2023-08-06T03:59:41;99801.25;;;14.36;84.15
70544;BME280;58097;48.364;-1.224;2023-08-06T04:02:06;99809.13;;;14.33;85.23
70544;BME280;58097;48.364;-1.224;2023-08-06T04:04:31;99806.34;;;14.33;84.96
70544;BME280;58097;48.364;-1.224;2023-08-06T04:06:57;99811.59;;;14.27;85.21
70544;BME280;58097;48.364;-1.224;2023-08-06T04:09:22;99813.31;;;14.29;85.01
70544;BME280;58097;48.364;-1.224;2023-08-06T04:11:47;99810.53;;;14.29;84.90
70544;BME280;58097;48.364;-1.224;2023-08-06T04:14:13;99811.59;;;14.27;85.09
70544;BME280;58097;48.364;-1.224;2023-08-06T04:16:38;99806.91;;;14.28;84.97
70544;BME280;58097;48.364;-1.224;2023-08-06T04:19:03;99808.34;;;14.24;85.22
70544;BME280;58097;48.364;-1.224;2023-08-06T04:21:29;99806.59;;;14.23;85.31
70544;BME280;58097;48.364;-1.224;2023-08-06T04:23:54;99813.22;;;14.22;85.56
70544;BME280;58097;48.364;-1.224;2023-08-06T04:26:19;99814.94;;;14.23;85.23
70544;BME280;58097;48.364;-1.224;2023-08-06T04:28:45;99814.28;;;14.21;84.93
70544;BME280;58097;48.364;-1.224;2023-08-06T04:31:10;99817.53;;;14.24;84.91
70544;BME280;58097;48.364;-1.224;2023-08-06T04:33:35;99820.13;;;14.26;84.56
70544;BME280;58097;48.364;-1.224;2023-08-06T04:36:01;99820.13;;;14.26;84.99
70544;BME280;58097;48.364;-1.224;2023-08-06T04:38:26;99831.63;;;14.23;84.87
70544;BME280;58097;48.364;-1.224;2023-08-06T04:40:52;99832.31;;;14.25;84.63
70544;BME280;58097;48.364;-1.224;2023-08-06T04:43:18;99840.63;;;14.25;84.47
70544;BME280;58097;48.364;-1.224;2023-08-06T04:45:50;99845.03;;;14.19;85.37
70544;BME280;58097;48.364;-1.224;2023-08-06T04:48:16;99851.44;;;14.20;85.21
70544;BME280;58097;48.364;-1.224;2023-08-06T04:50:45;99843.59;;;14.23;85.04
70544;BME280;58097;48.364;-1.224;2023-08-06T04:53:11;99854.41;;;14.18;85.69
70544;BME280;58097;48.364;-1.224;2023-08-06T04:55:36;99858.75;;;14.21;85.64
70544;BME280;58097;48.364;-1.224;2023-08-06T04:58:02;99853.88;;;14.23;85.38
70544;BME280;58097;48.364;-1.224;2023-08-06T05:00:27;99859.41;;;14.23;84.85
70544;BME280;58097;48.364;-1.224;2023-08-06T05:02:53;99861.16;;;14.24;84.76
70544;BME280;58097;48.364;-1.224;2023-08-06T05:05:18;99860.28;;;14.23;85.09
70544;BME280;58097;48.364;-1.224;2023-08-06T05:07:47;99865.66;;;14.25;85.20
70544;BME280;58097;48.364;-1.224;2023-08-06T05:10:13;99862.19;;;14.23;85.74
70544;BME280;58097;48.364;-1.224;2023-08-06T05:12:38;99863.94;;;14.24;85.42
70544;BME280;58097;48.364;-1.224;2023-08-06T05:15:04;99873.63;;;14.28;85.44
70544;BME280;58097;48.364;-1.224;2023-08-06T05:17:30;99875.72;;;14.26;85.48
70544;BME280;58097;48.364;-1.224;2023-08-06T05:19:55;99878.69;;;14.24;85.91
70544;BME280;58097;48.364;-1.224;2023-08-06T05:22:20;99881.47;;;14.24;85.92
70544;BME280;58097;48.364;-1.224;2023-08-06T05:24:46;99874.84;;;14.25;85.62
70544;BME280;58097;48.364;-1.224;2023-08-06T05:27:11;99876.41;;;14.28;85.70
70544;BME280;58097;48.364;-1.224;2023-08-06T05:29:37;99877.06;;;14.30;86.15
70544;BME280;58097;48.364;-1.224;2023-08-06T05:32:02;99874.09;;;14.32;86.06
70544;BME280;58097;48.364;-1.224;2023-08-06T05:34:28;99881.22;;;14.34;86.17
70544;BME280;58097;48.364;-1.224;2023-08-06T05:36:54;99880.63;;;14.39;85.88
70544;BME280;58097;48.364;-1.224;2023-08-06T05:39:19;99893.16;;;14.43;86.08
70544;BME280;58097;48.364;-1.224;2023-08-06T05:41:44;99895.75;;;14.44;86.26
70544;BME280;58097;48.364;-1.224;2023-08-06T05:44:10;99901.81;;;14.48;85.69
70544;BME280;58097;48.364;-1.224;2023-08-06T05:46:35;99903.56;;;14.49;86.05
70544;BME280;58097;48.364;-1.224;2023-08-06T05:49:00;99907.69;;;14.53;85.73
70544;BME280;58097;48.364;-1.224;2023-08-06T05:51:26;99910.47;;;14.53;86.11
70544;BME280;58097;48.364;-1.224;2023-08-06T05:53:52;99906.25;;;14.57;86.34
70544;BME280;58097;48.364;-1.224;2023-08-06T05:56:17;99914.50;;;14.65;85.68
70544;BME280;58097;48.364;-1.224;2023-08-06T05:58:43;99922.09;;;14.71;85.30
70544;BME280;58097;48.364;-1.224;2023-08-06T06:01:08;99922.78;;;14.73;85.30
70544;BME280;58097;48.364;-1.224;2023-08-06T06:03:33;99923.28;;;14.77;85.88
70544;BME280;58097;48.364;-1.224;2023-08-06T06:06:01;99938.34;;;14.82;85.30
70544;BME280;58097;48.364;-1.224;2023-08-06T06:08:26;99946.13;;;14.87;85.29
70544;BME280;58097;48.364;-1.224;2023-08-06T06:10:51;99936.84;;;14.95;85.10
70544;BME280;58097;48.364;-1.224;2023-08-06T06:13:17;99947.00;;;15.02;85.45
70544;BME280;58097;48.364;-1.224;2023-08-06T06:15:42;99952.03;;;15.07;85.51
70544;BME280;58097;48.364;-1.224;2023-08-06T06:18:07;99958.56;;;15.14;85.40
70544;BME280;58097;48.364;-1.224;2023-08-06T06:20:33;99955.59;;;15.15;85.29
70544;BME280;58097;48.364;-1.224;2023-08-06T06:22:59;99950.50;;;15.19;85.23
70544;BME280;58097;48.364;-1.224;2023-08-06T06:25:24;99959.53;;;15.21;85.45
70544;BME280;58097;48.364;-1.224;2023-08-06T06:27:50;99957.91;;;15.27;85.08
70544;BME280;58097;48.364;-1.224;2023-08-06T06:30:15;99963.09;;;15.30;85.38
70544;BME280;58097;48.364;-1.224;2023-08-06T06:32:40;99970.03;;;15.34;85.48
70544;BME280;58097;48.364;-1.224;2023-08-06T06:35:06;99971.84;;;15.41;85.48
70544;BME280;58097;48.364;-1.224;2023-08-06T06:37:32;99981.94;;;15.57;85.63
70544;BME280;58097;48.364;-1.224;2023-08-06T06:39:57;99980.84;;;15.66;85.77
70544;BME280;58097;48.364;-1.224;2023-08-06T06:42:22;99994.06;;;15.79;85.79
70544;BME280;58097;48.364;-1.224;2023-08-06T06:44:48;99987.25;;;15.96;86.10
70544;BME280;58097;48.364;-1.224;2023-08-06T06:47:14;99996.81;;;16.08;86.11
70544;BME280;58097;48.364;-1.224;2023-08-06T06:49:39;100000.00;;;16.20;85.94
70544;BME280;58097;48.364;-1.224;2023-08-06T06:52:05;100004.47;;;16.36;85.99
70544;BME280;58097;48.364;-1.224;2023-08-06T06:54:30;99996.94;;;16.51;86.22
70544;BME280;58097;48.364;-1.224;2023-08-06T06:56:55;100002.63;;;16.64;85.93
70544;BME280;58097;48.364;-1.224;2023-08-06T06:59:21;99999.34;;;16.76;85.66
70544;BME280;58097;48.364;-1.224;2023-08-06T07:01:46;100002.34;;;16.95;85.86
70544;BME280;58097;48.364;-1.224;2023-08-06T07:04:11;100012.63;;;17.16;85.41
70544;BME280;58097;48.364;-1.224;2023-08-06T07:06:37;100010.59;;;17.31;84.16
70544;BME280;58097;48.364;-1.224;2023-08-06T07:09:02;100004.22;;;17.38;83.67
70544;BME280;58097;48.364;-1.224;2023-08-06T07:11:28;100010.91;;;17.43;82.53
70544;BME280;58097;48.364;-1.224;2023-08-06T07:13:57;100013.72;;;17.43;81.50
70544;BME280;58097;48.364;-1.224;2023-08-06T07:16:24;100022.34;;;17.48;79.70
70544;BME280;58097;48.364;-1.224;2023-08-06T07:18:51;100022.38;;;17.55;80.41
70544;BME280;58097;48.364;-1.224;2023-08-06T07:21:17;100019.75;;;17.47;79.78
70544;BME280;58097;48.364;-1.224;2023-08-06T07:23:42;100016.19;;;17.59;80.46
70544;BME280;58097;48.364;-1.224;2023-08-06T07:26:08;100020.97;;;17.65;79.77
70544;BME280;58097;48.364;-1.224;2023-08-06T07:28:34;100026.09;;;17.62;78.37
70544;BME280;58097;48.364;-1.224;2023-08-06T07:30:59;100027.50;;;17.73;78.85
70544;BME280;58097;48.364;-1.224;2023-08-06T07:33:25;100026.94;;;17.90;80.38
70544;BME280;58097;48.364;-1.224;2023-08-06T07:35:50;100016.50;;;18.06;79.74
70544;BME280;58097;48.364;-1.224;2023-08-06T07:38:15;100019.63;;;18.24;78.06
70544;BME280;58097;48.364;-1.224;2023-08-06T07:40:41;100019.84;;;18.29;76.43
70544;BME280;58097;48.364;-1.224;2023-08-06T07:43:07;100022.88;;;18.27;75.71
70544;BME280;58097;48.364;-1.224;2023-08-06T07:45:34;100016.78;;;18.17;75.81
70544;BME280;58097;48.364;-1.224;2023-08-06T07:48:00;100028.09;;;17.96;75.19
70544;BME280;58097;48.364;-1.224;2023-08-06T07:50:26;100024.94;;;17.78;74.85
70544;BME280;58097;48.364;-1.224;2023-08-06T07:52:51;100017.47;;;17.85;76.81
70544;BME280;58097;48.364;-1.224;2023-08-06T07:55:17;100022.69;;;17.94;77.16
70544;BME280;58097;48.364;-1.224;2023-08-06T07:57:42;100022.72;;;18.01;75.55
70544;BME280;58097;48.364;-1.224;2023-08-06T08:00:08;100041.50;;;18.14;76.55
70544;BME280;58097;48.364;-1.224;2023-08-06T08:02:34;100040.22;;;18.16;74.56
70544;BME280;58097;48.364;-1.224;2023-08-06T08:05:00;100033.56;;;18.17;73.66
70544;BME280;58097;48.364;-1.224;2023-08-06T08:07:25;100029.75;;;18.32;74.72
70544;BME280;58097;48.364;-1.224;2023-08-06T08:09:53;100032.44;;;18.53;75.13
70544;BME280;58097;48.364;-1.224;2023-08-06T08:12:19;100042.19;;;18.70;74.91
70544;BME280;58097;48.364;-1.224;2023-08-06T08:14:44;100036.41;;;18.78;69.62
70544;BME280;58097;48.364;-1.224;2023-08-06T08:17:10;100038.81;;;18.88;71.56
70544;BME280;58097;48.364;-1.224;2023-08-06T08:19:36;100028.69;;;18.87;70.08
70544;BME280;58097;48.364;-1.224;2023-08-06T08:22:02;100038.38;;;18.84;68.67
70544;BME280;58097;48.364;-1.224;2023-08-06T08:24:28;100041.78;;;18.73;69.61
70544;BME280;58097;48.364;-1.224;2023-08-06T08:26:55;100042.84;;;18.79;69.61
70544;BME280;58097;48.364;-1.224;2023-08-06T08:29:21;100040.53;;;18.96;72.04
70544;BME280;58097;48.364;-1.224;2023-08-06T08:31:47;100042.69;;;18.94;72.02
70544;BME280;58097;48.364;-1.224;2023-08-06T08:34:15;100052.53;;;18.70;70.43
70544;BME280;58097;48.364;-1.224;2023-08-06T08:36:40;100042.84;;;18.72;72.01
70544;BME280;58097;48.364;-1.224;2023-08-06T08:39:06;100048.06;;;18.82;73.08
70544;BME280;58097;48.364;-1.224;2023-08-06T08:41:31;100044.84;;;18.85;72.47
70544;BME280;58097;48.364;-1.224;2023-08-06T08:43:58;100045.00;;;18.77;71.26
70544;BME280;58097;48.364;-1.224;2023-08-06T08:46:26;100049.16;;;18.87;70.76
70544;BME280;58097;48.364;-1.224;2023-08-06T08:48:53;100039.91;;;19.00;70.83
70544;BME280;58097;48.364;-1.224;2023-08-06T08:51:20;100048.97;;;19.09;69.97
70544;BME280;58097;48.364;-1.224;2023-08-06T08:53:47;100051.53;;;18.97;69.48
70544;BME280;58097;48.364;-1.224;2023-08-06T08:56:14;100054.53;;;18.82;69.19
70544;BME280;58097;48.364;-1.224;2023-08-06T08:58:40;100060.13;;;18.82;69.93
70544;BME280;58097;48.364;-1.224;2023-08-06T09:01:07;100054.91;;;18.73;69.10
70544;BME280;58097;48.364;-1.224;2023-08-06T09:03:34;100049.34;;;18.79;69.56
70544;BME280;58097;48.364;-1.224;2023-08-06T09:06:02;100057.53;;;18.87;69.12
70544;BME280;58097;48.364;-1.224;2023-08-06T09:08:46;100046.78;;;18.98;69.97
70544;BME280;58097;48.364;-1.224;2023-08-06T09:11:12;100048.72;;;18.84;68.29
70544;BME280;58097;48.364;-1.224;2023-08-06T09:13:38;100045.84;;;18.64;68.98
70544;BME280;58097;48.364;-1.224;2023-08-06T09:16:04;100049.72;;;18.63;70.92
70544;BME280;58097;48.364;-1.224;2023-08-06T09:18:30;100052.16;;;18.86;71.32
70544;BME280;58097;48.364;-1.224;2023-08-06T09:20:56;100056.09;;;19.11;70.29
70544;BME280;58097;48.364;-1.224;2023-08-06T09:23:28;100056.09;;;19.31;69.29
70544;BME280;58097;48.364;-1.224;2023-08-06T09:25:55;100044.25;;;19.42;68.44
70544;BME280;58097;48.364;-1.224;2023-08-06T09:28:20;100038.88;;;19.61;66.48
70544;BME280;58097;48.364;-1.224;2023-08-06T09:30:47;100044.69;;;19.59;66.66
70544;BME280;58097;48.364;-1.224;2023-08-06T09:33:17;100053.56;;;19.69;66.59
70544;BME280;58097;48.364;-1.224;2023-08-06T09:35:43;100059.38;;;19.74;64.17
70544;BME280;58097;48.364;-1.224;2023-08-06T09:38:09;100056.34;;;19.76;65.92
70544;BME280;58097;48.364;-1.224;2023-08-06T09:40:36;100061.09;;;19.62;65.41
70544;BME280;58097;48.364;-1.224;2023-08-06T09:43:02;100062.78;;;19.50;64.65
70544;BME280;58097;48.364;-1.224;2023-08-06T09:45:32;100064.31;;;19.39;66.55
70544;BME280;58097;48.364;-1.224;2023-08-06T09:47:59;100066.00;;;19.34;66.80
70544;BME280;58097;48.364;-1.224;2023-08-06T09:50:33;100060.19;;;19.22;65.05
70544;BME280;58097;48.364;-1.224;2023-08-06T09:53:00;100064.06;;;19.14;66.68
70544;BME280;58097;48.364;-1.224;2023-08-06T09:55:26;100055.63;;;18.95;64.76
70544;BME280;58097;48.364;-1.224;2023-08-06T09:57:52;100067.22;;;18.85;65.81
70544;BME280;58097;48.364;-1.224;2023-08-06T10:00:18;100079.50;;;18.84;66.80
70544;BME280;58097;48.364;-1.224;2023-08-06T10:02:45;100070.09;;;19.11;69.88
70544;BME280;58097;48.364;-1.224;2023-08-06T10:05:10;100077.69;;;19.37;68.12
70544;BME280;58097;48.364;-1.224;2023-08-06T10:07:36;100079.00;;;19.55;67.73
70544;BME280;58097;48.364;-1.224;2023-08-06T10:10:04;100085.91;;;19.72;66.55
70544;BME280;58097;48.364;-1.224;2023-08-06T10:12:34;100090.63;;;19.78;65.46
70544;BME280;58097;48.364;-1.224;2023-08-06T10:15:04;100089.31;;;19.47;61.81
70544;BME280;58097;48.364;-1.224;2023-08-06T10:17:32;100096.03;;;19.53;66.36
70544;BME280;58097;48.364;-1.224;2023-08-06T10:19:59;100098.19;;;19.64;66.16
70544;BME280;58097;48.364;-1.224;2023-08-06T10:22:25;100096.22;;;19.65;63.87
70544;BME280;58097;48.364;-1.224;2023-08-06T10:24:59;100103.56;;;19.59;65.63
70544;BME280;58097;48.364;-1.224;2023-08-06T10:27:35;100113.69;;;19.40;64.87
70544;BME280;58097;48.364;-1.224;2023-08-06T10:32:53;100108.44;;;19.11;64.32
70544;BME280;58097;48.364;-1.224;2023-08-06T10:35:47;100103.88;;;19.03;65.12
70544;BME280;58097;48.364;-1.224;2023-08-06T10:38:19;100101.94;;;18.91;65.63
70544;BME280;58097;48.364;-1.224;2023-08-06T10:43:35;100106.25;;;19.06;68.27
70544;BME280;58097;48.364;-1.224;2023-08-06T10:46:10;100110.63;;;19.35;69.17
70544;BME280;58097;48.364;-1.224;2023-08-06T10:48:44;100108.53;;;19.57;66.85
70544;BME280;58097;48.364;-1.224;2023-08-06T10:51:11;100118.47;;;19.66;65.73
70544;BME280;58097;48.364;-1.224;2023-08-06T10:53:42;100115.41;;;19.48;65.12
70544;BME280;58097;48.364;-1.224;2023-08-06T10:56:15;100117.78;;;19.51;65.37
70544;BME280;58097;48.364;-1.224;2023-08-06T10:58:41;100128.16;;;19.57;66.19
70544;BME280;58097;48.364;-1.224;2023-08-06T11:01:07;100125.75;;;19.47;65.94
70544;BME280;58097;48.364;-1.224;2023-08-06T11:03:33;100134.78;;;19.36;66.00
70544;BME280;58097;48.364;-1.224;2023-08-06T11:05:59;100134.31;;;19.26;66.46
70544;BME280;58097;48.364;-1.224;2023-08-06T11:08:26;100143.38;;;19.22;66.97
70544;BME280;58097;48.364;-1.224;2023-08-06T11:10:52;100146.59;;;19.18;66.50
70544;BME280;58097;48.364;-1.224;2023-08-06T11:13:17;100141.66;;;19.14;66.33
70544;BME280;58097;48.364;-1.224;2023-08-06T11:15:46;100142.28;;;19.16;66.75
70544;BME280;58097;48.364;-1.224;2023-08-06T11:18:11;100145.09;;;19.16;67.20
70544;BME280;58097;48.364;-1.224;2023-08-06T11:20:37;100130.88;;;19.11;65.64
70544;BME280;58097;48.364;-1.224;2023-08-06T11:23:02;100138.16;;;19.05;66.45
70544;BME280;58097;48.364;-1.224;2023-08-06T11:25:28;100137.56;;;19.23;67.57
70544;BME280;58097;48.364;-1.224;2023-08-06T11:27:54;100133.72;;;19.37;68.16
70544;BME280;58097;48.364;-1.224;2023-08-06T11:30:19;100138.25;;;19.45;66.12
70544;BME280;58097;48.364;-1.224;2023-08-06T11:32:46;100130.28;;;19.48;67.53
70544;BME280;58097;48.364;-1.224;2023-08-06T11:35:15;100134.41;;;19.66;67.52
70544;BME280;58097;48.364;-1.224;2023-08-06T11:37:45;100124.94;;;19.80;66.86
70544;BME280;58097;48.364;-1.224;2023-08-06T11:40:16;100120.19;;;19.80;66.03
70544;BME280;58097;48.364;-1.224;2023-08-06T11:42:42;100122.53;;;19.64;64.61
70544;BME280;58097;48.364;-1.224;2023-08-06T11:45:07;100113.47;;;19.48;64.42
70544;BME280;58097;48.364;-1.224;2023-08-06T11:47:38;100117.78;;;19.44;65.66
70544;BME280;58097;48.364;-1.224;2023-08-06T11:50:05;100129.59;;;19.33;65.89
70544;BME280;58097;48.364;-1.224;2023-08-06T11:52:31;100122.06;;;19.34;66.87
70544;BME280;58097;48.364;-1.224;2023-08-06T11:55:03;100121.81;;;19.22;66.06
70544;BME280;58097;48.364;-1.224;2023-08-06T11:57:32;100116.00;;;19.17;66.57
70544;BME280;58097;48.364;-1.224;2023-08-06T12:00:10;100109.59;;;19.43;68.07
70544;BME280;58097;48.364;-1.224;2023-08-06T12:02:38;100110.66;;;19.48;66.92
70544;BME280;58097;48.364;-1.224;2023-08-06T12:05:12;100110.66;;;19.48;66.17
70544;BME280;58097;48.364;-1.224;2023-08-06T12:07:40;100102.31;;;19.68;66.97
70544;BME280;58097;48.364;-1.224;2023-08-06T12:10:07;100102.25;;;19.95;67.22
70544;BME280;58097;48.364;-1.224;2023-08-06T12:12:33;100113.25;;;20.09;65.27
70544;BME280;58097;48.364;-1.224;2023-08-06T12:14:59;100120.41;;;19.99;63.56
70544;BME280;58097;48.364;-1.224;2023-08-06T12:17:25;100117.59;;;19.79;64.56
70544;BME280;58097;48.364;-1.224;2023-08-06T12:19:50;100102.06;;;19.63;63.44
70544;BME280;58097;48.364;-1.224;2023-08-06T12:22:16;100105.50;;;19.65;65.81
70544;BME280;58097;48.364;-1.224;2023-08-06T12:24:46;100103.34;;;19.61;65.19
70544;BME280;58097;48.364;-1.224;2023-08-06T12:27:12;100100.34;;;19.62;66.45
70544;BME280;58097;48.364;-1.224;2023-08-06T12:29:40;100105.94;;;19.82;67.07
70544;BME280;58097;48.364;-1.224;2023-08-06T12:32:06;100097.72;;;19.94;63.67
70544;BME280;58097;48.364;-1.224;2023-08-06T12:34:32;100108.47;;;20.23;66.39
70544;BME280;58097;48.364;-1.224;2023-08-06T12:36:57;100111.69;;;20.33;63.72
70544;BME280;58097;48.364;-1.224;2023-08-06T12:39:22;100109.94;;;20.39;64.07
70544;BME280;58097;48.364;-1.224;2023-08-06T12:41:48;100114.28;;;20.35;63.22
70544;BME280;58097;48.364;-1.224;2023-08-06T12:44:14;100110.00;;;20.26;63.92
70544;BME280;58097;48.364;-1.224;2023-08-06T12:46:39;100100.47;;;20.20;64.67
70544;BME280;58097;48.364;-1.224;2023-08-06T12:49:05;100109.31;;;20.37;65.33